LFMY 301030Z AUTO 22005KT 180V260 CAVOK 23/09 Q1016

ElémentsDécodage
LFMY Station météo située sur l'aérodrome de SALON-DE-PROVENCE
301030Z émis le 30 du mois à 10h30 UTC
AUTO Bulletin édité par un automate
22005KT vent du 220°, 05 noeuds
180V260 vent de direction variable entre 180° et 260°
CAVOK Ceiling And Visibility OK
- Visibilité de 10 Km ou plus
- Pas de nuage au-dessous de 1500m ou au-dessous de l'altitude minimale du secteur la plus élevée (si>1500m) et absence de CB
- pas de temps présent significatif
23/09 température 23°C, point de rosée 09°C
 soit une humidité relative de 41%
Q1016 la pression au niveau de la mer (QNH) est de 1016 hPa